sensor_id;sensor_type;location;lat;lon;timestamp;pressure;altitude;pressure_sealevel;temperature;humidity
23318;BME280;11831;55.918;37.746;2022-10-16T00:00:41;100517.03;;;8.37;0.00
23318;BME280;11831;55.918;37.746;2022-10-16T00:03:07;100517.84;;;8.37;0.00
23318;BME280;11831;55.918;37.746;2022-10-16T00:05:37;100524.19;;;8.36;0.00
23318;BME280;11831;55.918;37.746;2022-10-16T00:08:04;100522.53;;;8.35;0.00
23318;BME280;11831;55.918;37.746;2022-10-16T00:10:30;100523.91;;;8.31;0.00
23318;BME280;11831;55.918;37.746;2022-10-16T00:12:56;100525.44;;;8.26;0.00
23318;BME280;11831;55.918;37.746;2022-10-16T00:15:22;100531.53;;;8.34;0.00
23318;BME280;11831;55.918;37.746;2022-10-16T00:17:48;100529.31;;;8.23;0.00
23318;BME280;11831;55.918;37.746;2022-10-16T00:20:14;100533.00;;;8.22;0.00
23318;BME280;11831;55.918;37.746;2022-10-16T00:22:59;100537.69;;;8.20;0.00
23318;BME280;11831;55.918;37.746;2022-10-16T00:25:25;100537.22;;;8.17;0.00
23318;BME280;11831;55.918;37.746;2022-10-16T00:27:51;100535.66;;;8.22;0.00
23318;BME280;11831;55.918;37.746;2022-10-16T00:30:17;100537.03;;;8.33;0.00
23318;BME280;11831;55.918;37.746;2022-10-16T00:32:43;100535.84;;;8.21;0.00
23318;BME280;11831;55.918;37.746;2022-10-16T00:35:09;100531.91;;;8.17;0.00
23318;BME280;11831;55.918;37.746;2022-10-16T00:37:35;100539.59;;;8.26;0.00
23318;BME280;11831;55.918;37.746;2022-10-16T00:40:01;100540.25;;;8.28;0.00
23318;BME280;11831;55.918;37.746;2022-10-16T00:42:28;100542.19;;;8.20;0.00
23318;BME280;11831;55.918;37.746;2022-10-16T00:44:55;100539.88;;;8.17;0.00
23318;BME280;11831;55.918;37.746;2022-10-16T00:47:32;100536.66;;;8.21;0.00
23318;BME280;11831;55.918;37.746;2022-10-16T00:50:07;100544.09;;;8.26;0.00
23318;BME280;11831;55.918;37.746;2022-10-16T00:52:34;100538.97;;;8.09;0.00
23318;BME280;11831;55.918;37.746;2022-10-16T00:55:01;100539.34;;;8.06;0.00
23318;BME280;11831;55.918;37.746;2022-10-16T00:57:29;100545.81;;;7.97;0.00
23318;BME280;11831;55.918;37.746;2022-10-16T00:59:55;100543.66;;;7.93;0.00
23318;BME280;11831;55.918;37.746;2022-10-16T01:02:21;100541.38;;;7.75;0.00
23318;BME280;11831;55.918;37.746;2022-10-16T01:04:49;100553.88;;;7.74;0.00
23318;BME280;11831;55.918;37.746;2022-10-16T01:14:50;100546.75;;;7.52;0.00
23318;BME280;11831;55.918;37.746;2022-10-16T01:17:20;100553.19;;;7.58;0.00
23318;BME280;11831;55.918;37.746;2022-10-16T01:22:14;100553.75;;;7.53;0.00
23318;BME280;11831;55.918;37.746;2022-10-16T01:24:43;100559.88;;;7.54;0.00
23318;BME280;11831;55.918;37.746;2022-10-16T01:27:15;100552.16;;;7.44;0.00
23318;BME280;11831;55.918;37.746;2022-10-16T01:35:41;100560.34;;;7.42;0.00
23318;BME280;11831;55.918;37.746;2022-10-16T01:40:31;100561.63;;;7.46;0.00
23318;BME280;11831;55.918;37.746;2022-10-16T01:42:59;100556.84;;;7.42;0.00
23318;BME280;11831;55.918;37.746;2022-10-16T01:45:28;100560.50;;;7.41;0.00
23318;BME280;11831;55.918;37.746;2022-10-16T01:47:56;100562.37;;;7.55;0.00
23318;BME280;11831;55.918;37.746;2022-10-16T01:50:23;100562.44;;;7.47;0.00
23318;BME280;11831;55.918;37.746;2022-10-16T01:52:51;100572.16;;;7.40;0.00
23318;BME280;11831;55.918;37.746;2022-10-16T01:55:20;100564.53;;;7.37;0.00
23318;BME280;11831;55.918;37.746;2022-10-16T01:57:48;100568.91;;;7.30;0.00
23318;BME280;11831;55.918;37.746;2022-10-16T02:00:16;100567.72;;;7.32;0.00
23318;BME280;11831;55.918;37.746;2022-10-16T02:02:44;100568.09;;;7.29;0.00
23318;BME280;11831;55.918;37.746;2022-10-16T02:05:16;100567.03;;;7.38;0.00
23318;BME280;11831;55.918;37.746;2022-10-16T02:07:44;100577.06;;;7.28;0.00
23318;BME280;11831;55.918;37.746;2022-10-16T02:10:10;100569.72;;;7.30;0.00
23318;BME280;11831;55.918;37.746;2022-10-16T02:12:37;100572.37;;;7.15;0.00
23318;BME280;11831;55.918;37.746;2022-10-16T02:15:05;100573.47;;;7.21;0.00
23318;BME280;11831;55.918;37.746;2022-10-16T02:17:32;100573.66;;;7.20;0.00
23318;BME280;11831;55.918;37.746;2022-10-16T02:19:58;100568.44;;;7.26;0.00
23318;BME280;11831;55.918;37.746;2022-10-16T02:30:24;100578.94;;;7.05;0.00
23318;BME280;11831;55.918;37.746;2022-10-16T02:32:48;100576.22;;;7.13;0.00
23318;BME280;11831;55.918;37.746;2022-10-16T02:35:15;100585.47;;;7.17;0.00
23318;BME280;11831;55.918;37.746;2022-10-16T02:37:42;100581.00;;;7.18;0.00
23318;BME280;11831;55.918;37.746;2022-10-16T02:40:09;100582.00;;;7.16;0.00
23318;BME280;11831;55.918;37.746;2022-10-16T02:42:36;100578.69;;;7.14;0.00
23318;BME280;11831;55.918;37.746;2022-10-16T02:45:03;100574.00;;;7.16;0.00
23318;BME280;11831;55.918;37.746;2022-10-16T02:47:30;100580.78;;;7.04;0.00
23318;BME280;11831;55.918;37.746;2022-10-16T02:49:56;100580.34;;;7.15;0.00
23318;BME280;11831;55.918;37.746;2022-10-16T02:52:23;100579.50;;;7.15;0.00
23318;BME280;11831;55.918;37.746;2022-10-16T02:54:49;100576.75;;;7.08;0.00
23318;BME280;11831;55.918;37.746;2022-10-16T02:57:15;100584.91;;;7.07;0.00
23318;BME280;11831;55.918;37.746;2022-10-16T02:59:41;100582.53;;;6.89;0.00
23318;BME280;11831;55.918;37.746;2022-10-16T03:02:07;100576.84;;;6.92;0.00
23318;BME280;11831;55.918;37.746;2022-10-16T03:04:33;100581.81;;;6.95;0.00
23318;BME280;11831;55.918;37.746;2022-10-16T03:06:59;100580.22;;;6.86;0.00
23318;BME280;11831;55.918;37.746;2022-10-16T03:09:26;100583.09;;;6.99;0.00
23318;BME280;11831;55.918;37.746;2022-10-16T03:11:52;100588.78;;;6.96;0.00
23318;BME280;11831;55.918;37.746;2022-10-16T03:14:18;100581.81;;;6.95;0.00
23318;BME280;11831;55.918;37.746;2022-10-16T03:16:44;100586.41;;;7.01;0.00
23318;BME280;11831;55.918;37.746;2022-10-16T03:19:10;100596.81;;;6.88;0.00
23318;BME280;11831;55.918;37.746;2022-10-16T03:21:36;100589.25;;;7.00;0.00
23318;BME280;11831;55.918;37.746;2022-10-16T03:24:02;100597.66;;;6.89;0.00
23318;BME280;11831;55.918;37.746;2022-10-16T03:26:28;100600.84;;;6.84;0.00
23318;BME280;11831;55.918;37.746;2022-10-16T03:28:54;100600.13;;;6.90;0.00
23318;BME280;11831;55.918;37.746;2022-10-16T03:31:20;100595.88;;;6.81;0.00
23318;BME280;11831;55.918;37.746;2022-10-16T03:33:47;100598.06;;;6.77;0.00
23318;BME280;11831;55.918;37.746;2022-10-16T03:36:13;100600.38;;;6.72;0.00
23318;BME280;11831;55.918;37.746;2022-10-16T03:38:39;100605.38;;;6.75;0.00
23318;BME280;11831;55.918;37.746;2022-10-16T03:41:05;100597.06;;;6.70;0.00
23318;BME280;11831;55.918;37.746;2022-10-16T03:43:33;100606.22;;;6.68;0.00
23318;BME280;11831;55.918;37.746;2022-10-16T03:45:59;100612.38;;;6.68;0.00
23318;BME280;11831;55.918;37.746;2022-10-16T03:48:25;100614.06;;;6.61;0.00
23318;BME280;11831;55.918;37.746;2022-10-16T03:50:51;100613.37;;;6.67;0.00
23318;BME280;11831;55.918;37.746;2022-10-16T03:53:17;100606.44;;;6.58;0.00
23318;BME280;11831;55.918;37.746;2022-10-16T03:55:44;100606.81;;;6.55;0.00
23318;BME280;11831;55.918;37.746;2022-10-16T03:58:10;100606.31;;;6.51;0.00
23318;BME280;11831;55.918;37.746;2022-10-16T04:00:39;100611.94;;;6.57;0.00
23318;BME280;11831;55.918;37.746;2022-10-16T04:03:06;100610.47;;;6.54;0.00
23318;BME280;11831;55.918;37.746;2022-10-16T04:05:32;100609.81;;;6.52;0.00
23318;BME280;11831;55.918;37.746;2022-10-16T04:07:58;100609.16;;;6.42;0.00
23318;BME280;11831;55.918;37.746;2022-10-16T04:10:24;100613.34;;;6.44;0.00
23318;BME280;11831;55.918;37.746;2022-10-16T04:12:50;100616.00;;;6.44;0.00
23318;BME280;11831;55.918;37.746;2022-10-16T04:15:16;100607.34;;;6.42;0.00
23318;BME280;11831;55.918;37.746;2022-10-16T04:17:42;100609.50;;;6.47;0.00
23318;BME280;11831;55.918;37.746;2022-10-16T04:20:09;100607.88;;;6.38;0.00
23318;BME280;11831;55.918;37.746;2022-10-16T04:22:35;100599.53;;;6.49;0.00
23318;BME280;11831;55.918;37.746;2022-10-16T04:25:01;100610.34;;;6.47;0.00
23318;BME280;11831;55.918;37.746;2022-10-16T04:27:28;100607.03;;;6.37;0.00
23318;BME280;11831;55.918;37.746;2022-10-16T04:29:59;100601.06;;;6.43;0.00
23318;BME280;11831;55.918;37.746;2022-10-16T04:32:26;100608.69;;;6.38;0.00
23318;BME280;11831;55.918;37.746;2022-10-16T04:34:52;100620.84;;;6.33;0.00
23318;BME280;11831;55.918;37.746;2022-10-16T04:37:18;100621.34;;;6.28;0.00
23318;BME280;11831;55.918;37.746;2022-10-16T04:39:45;100623.47;;;6.41;0.00
23318;BME280;11831;55.918;37.746;2022-10-16T04:42:11;100620.03;;;6.24;0.00
23318;BME280;11831;55.918;37.746;2022-10-16T04:44:37;100617.47;;;6.47;0.00
23318;BME280;11831;55.918;37.746;2022-10-16T04:47:03;100621.03;;;6.23;0.00
23318;BME280;11831;55.918;37.746;2022-10-16T04:49:30;100622.06;;;6.14;0.00
23318;BME280;11831;55.918;37.746;2022-10-16T04:51:56;100624.47;;;6.40;0.00
23318;BME280;11831;55.918;37.746;2022-10-16T04:54:22;100620.69;;;6.26;0.00
23318;BME280;11831;55.918;37.746;2022-10-16T04:56:48;100627.03;;;6.17;0.00
23318;BME280;11831;55.918;37.746;2022-10-16T04:59:16;100623.50;;;6.33;0.00
23318;BME280;11831;55.918;37.746;2022-10-16T05:01:43;100629.34;;;6.20;0.00
23318;BME280;11831;55.918;37.746;2022-10-16T05:04:09;100623.19;;;6.28;0.00
23318;BME280;11831;55.918;37.746;2022-10-16T05:06:35;100628.16;;;6.31;0.00
23318;BME280;11831;55.918;37.746;2022-10-16T05:09:01;100629.63;;;6.33;0.00
23318;BME280;11831;55.918;37.746;2022-10-16T05:11:28;100625.62;;;6.37;0.00
23318;BME280;11831;55.918;37.746;2022-10-16T05:13:54;100629.78;;;6.40;0.00
23318;BME280;11831;55.918;37.746;2022-10-16T05:16:20;100635.75;;;6.42;0.00
23318;BME280;11831;55.918;37.746;2022-10-16T05:18:46;100630.28;;;6.35;0.00
23318;BME280;11831;55.918;37.746;2022-10-16T05:21:12;100632.31;;;6.25;0.00
23318;BME280;11831;55.918;37.746;2022-10-16T05:23:38;100632.94;;;6.35;0.00
23318;BME280;11831;55.918;37.746;2022-10-16T05:26:04;100621.13;;;6.46;0.00
23318;BME280;11831;55.918;37.746;2022-10-16T05:28:30;100633.25;;;6.48;0.00
23318;BME280;11831;55.918;37.746;2022-10-16T05:30:56;100642.22;;;6.47;0.00
23318;BME280;11831;55.918;37.746;2022-10-16T05:33:23;100647.00;;;6.52;0.00
23318;BME280;11831;55.918;37.746;2022-10-16T05:35:50;100643.59;;;6.74;0.00
23318;BME280;11831;55.918;37.746;2022-10-16T05:38:17;100639.75;;;6.77;0.00
23318;BME280;11831;55.918;37.746;2022-10-16T05:40:43;100642.78;;;6.66;0.00
23318;BME280;11831;55.918;37.746;2022-10-16T05:43:15;100644.50;;;6.59;0.00
23318;BME280;11831;55.918;37.746;2022-10-16T05:45:41;100647.41;;;6.72;0.00
23318;BME280;11831;55.918;37.746;2022-10-16T05:48:08;100642.91;;;6.72;0.00
23318;BME280;11831;55.918;37.746;2022-10-16T05:50:34;100648.22;;;6.72;0.00
23318;BME280;11831;55.918;37.746;2022-10-16T05:53:00;100648.69;;;6.84;0.00
23318;BME280;11831;55.918;37.746;2022-10-16T05:55:26;100652.41;;;7.06;0.00
23318;BME280;11831;55.918;37.746;2022-10-16T05:57:54;100653.34;;;7.13;0.00
23318;BME280;11831;55.918;37.746;2022-10-16T06:00:20;100659.12;;;7.16;0.00
23318;BME280;11831;55.918;37.746;2022-10-16T06:02:46;100651.09;;;7.25;0.00
23318;BME280;11831;55.918;37.746;2022-10-16T06:05:12;100647.25;;;7.50;0.00
23318;BME280;11831;55.918;37.746;2022-10-16T06:07:38;100650.44;;;7.68;0.00
23318;BME280;11831;55.918;37.746;2022-10-16T06:10:04;100648.72;;;7.75;0.00
23318;BME280;11831;55.918;37.746;2022-10-16T06:12:31;100660.84;;;7.93;0.00
23318;BME280;11831;55.918;37.746;2022-10-16T06:14:57;100655.47;;;8.16;0.00
23318;BME280;11831;55.918;37.746;2022-10-16T06:17:23;100654.81;;;8.14;0.00
23318;BME280;11831;55.918;37.746;2022-10-16T06:19:49;100658.63;;;8.34;0.00
23318;BME280;11831;55.918;37.746;2022-10-16T06:22:15;100656.12;;;8.32;0.00
23318;BME280;11831;55.918;37.746;2022-10-16T06:24:41;100653.03;;;8.44;0.00
23318;BME280;11831;55.918;37.746;2022-10-16T06:27:07;100655.09;;;8.19;0.00
23318;BME280;11831;55.918;37.746;2022-10-16T06:29:33;100652.84;;;8.45;0.00
23318;BME280;11831;55.918;37.746;2022-10-16T06:31:59;100660.53;;;8.55;0.00
23318;BME280;11831;55.918;37.746;2022-10-16T06:34:25;100654.50;;;8.61;0.00
23318;BME280;11831;55.918;37.746;2022-10-16T06:36:51;100659.97;;;8.74;0.00
23318;BME280;11831;55.918;37.746;2022-10-16T06:39:19;100660.41;;;8.92;0.00
23318;BME280;11831;55.918;37.746;2022-10-16T06:41:45;100665.00;;;8.98;0.00
23318;BME280;11831;55.918;37.746;2022-10-16T06:44:12;100667.69;;;8.84;0.00
23318;BME280;11831;55.918;37.746;2022-10-16T06:46:38;100666.50;;;9.22;0.00
23318;BME280;11831;55.918;37.746;2022-10-16T06:49:04;100663.47;;;9.11;0.00
23318;BME280;11831;55.918;37.746;2022-10-16T06:51:30;100670.78;;;9.02;0.00
23318;BME280;11831;55.918;37.746;2022-10-16T06:53:57;100665.72;;;9.07;0.00
23318;BME280;11831;55.918;37.746;2022-10-16T06:56:24;100664.63;;;9.01;0.00
23318;BME280;11831;55.918;37.746;2022-10-16T06:58:51;100668.16;;;9.66;0.00
23318;BME280;11831;55.918;37.746;2022-10-16T07:01:18;100665.09;;;9.69;0.00
23318;BME280;11831;55.918;37.746;2022-10-16T07:03:45;100677.50;;;9.34;0.00
23318;BME280;11831;55.918;37.746;2022-10-16T07:06:12;100676.09;;;9.81;0.00
23318;BME280;11831;55.918;37.746;2022-10-16T07:08:39;100670.47;;;9.76;0.00
23318;BME280;11831;55.918;37.746;2022-10-16T07:11:06;100675.62;;;10.26;0.00
23318;BME280;11831;55.918;37.746;2022-10-16T07:13:33;100676.38;;;9.92;0.00
23318;BME280;11831;55.918;37.746;2022-10-16T07:16:06;100674.19;;;10.24;0.00
23318;BME280;11831;55.918;37.746;2022-10-16T07:18:32;100674.53;;;10.49;0.00
23318;BME280;11831;55.918;37.746;2022-10-16T07:23:31;100677.66;;;10.59;0.00
23318;BME280;11831;55.918;37.746;2022-10-16T07:25:57;100685.41;;;10.41;0.00
23318;BME280;11831;55.918;37.746;2022-10-16T07:28:23;100676.66;;;10.60;0.00
23318;BME280;11831;55.918;37.746;2022-10-16T07:30:49;100679.53;;;10.65;0.00
23318;BME280;11831;55.918;37.746;2022-10-16T07:33:16;100688.53;;;10.51;0.00
23318;BME280;11831;55.918;37.746;2022-10-16T07:35:50;100687.38;;;10.67;0.00
23318;BME280;11831;55.918;37.746;2022-10-16T07:38:16;100674.81;;;11.08;0.00
23318;BME280;11831;55.918;37.746;2022-10-16T07:40:42;100695.31;;;10.95;0.00
23318;BME280;11831;55.918;37.746;2022-10-16T07:43:08;100681.91;;;10.81;0.00
23318;BME280;11831;55.918;37.746;2022-10-16T07:45:34;100688.19;;;11.15;0.00
23318;BME280;11831;55.918;37.746;2022-10-16T07:48:00;100683.66;;;11.15;0.00
23318;BME280;11831;55.918;37.746;2022-10-16T07:50:28;100673.56;;;11.04;0.00
23318;BME280;11831;55.918;37.746;2022-10-16T07:52:55;100685.31;;;11.10;0.00
23318;BME280;11831;55.918;37.746;2022-10-16T07:55:22;100677.37;;;11.69;0.00
23318;BME280;11831;55.918;37.746;2022-10-16T07:57:49;100675.62;;;11.09;0.00
23318;BME280;11831;55.918;37.746;2022-10-16T08:00:15;100680.03;;;11.36;0.00
23318;BME280;11831;55.918;37.746;2022-10-16T08:02:41;100681.06;;;11.42;0.00
23318;BME280;11831;55.918;37.746;2022-10-16T08:05:07;100682.66;;;11.30;0.00
23318;BME280;11831;55.918;37.746;2022-10-16T08:07:33;100689.53;;;11.59;0.00
23318;BME280;11831;55.918;37.746;2022-10-16T08:09:59;100683.38;;;11.85;0.00
23318;BME280;11831;55.918;37.746;2022-10-16T08:12:26;100687.50;;;11.87;0.00
23318;BME280;11831;55.918;37.746;2022-10-16T08:14:52;100679.03;;;12.23;0.00
23318;BME280;11831;55.918;37.746;2022-10-16T08:17:18;100686.88;;;12.18;0.00
23318;BME280;11831;55.918;37.746;2022-10-16T08:19:44;100683.97;;;12.33;0.00
23318;BME280;11831;55.918;37.746;2022-10-16T08:22:11;100684.75;;;12.47;0.00
23318;BME280;11831;55.918;37.746;2022-10-16T08:24:37;100692.47;;;11.97;0.00
23318;BME280;11831;55.918;37.746;2022-10-16T08:27:03;100683.00;;;11.94;0.00
23318;BME280;11831;55.918;37.746;2022-10-16T08:29:29;100679.06;;;12.03;0.00
23318;BME280;11831;55.918;37.746;2022-10-16T08:31:55;100684.22;;;12.25;0.00
23318;BME280;11831;55.918;37.746;2022-10-16T08:34:21;100682.47;;;12.50;0.00
23318;BME280;11831;55.918;37.746;2022-10-16T08:36:47;100680.06;;;12.35;0.00
23318;BME280;11831;55.918;37.746;2022-10-16T08:39:13;100683.41;;;12.04;0.00
23318;BME280;11831;55.918;37.746;2022-10-16T08:49:30;100679.69;;;12.25;0.00
23318;BME280;11831;55.918;37.746;2022-10-16T08:51:57;100676.91;;;12.58;0.00
23318;BME280;11831;55.918;37.746;2022-10-16T08:54:29;100674.56;;;13.26;0.00
23318;BME280;11831;55.918;37.746;2022-10-16T08:56:56;100677.78;;;12.97;0.00
23318;BME280;11831;55.918;37.746;2022-10-16T08:59:23;100673.84;;;12.41;0.00
23318;BME280;11831;55.918;37.746;2022-10-16T09:01:50;100677.91;;;12.70;0.00
23318;BME280;11831;55.918;37.746;2022-10-16T09:07:03;100676.50;;;12.61;0.00
23318;BME280;11831;55.918;37.746;2022-10-16T09:09:45;100690.50;;;12.70;0.00
23318;BME280;11831;55.918;37.746;2022-10-16T09:12:22;100692.81;;;12.60;0.00
23318;BME280;11831;55.918;37.746;2022-10-16T09:17:37;100693.28;;;12.10;0.00
23318;BME280;11831;55.918;37.746;2022-10-16T09:22:34;100681.25;;;12.53;0.00
23318;BME280;11831;55.918;37.746;2022-10-16T09:25:01;100695.97;;;12.10;0.00
23318;BME280;11831;55.918;37.746;2022-10-16T09:27:37;100676.16;;;11.92;0.00
23318;BME280;11831;55.918;37.746;2022-10-16T09:30:14;100686.50;;;12.01;0.00
23318;BME280;11831;55.918;37.746;2022-10-16T09:32:41;100684.84;;;12.00;0.00
23318;BME280;11831;55.918;37.746;2022-10-16T09:35:14;100698.00;;;12.22;0.00
23318;BME280;11831;55.918;37.746;2022-10-16T09:37:43;100686.06;;;12.31;0.00
23318;BME280;11831;55.918;37.746;2022-10-16T09:40:13;100689.34;;;12.33;0.00
23318;BME280;11831;55.918;37.746;2022-10-16T09:42:39;100683.94;;;12.46;0.00
23318;BME280;11831;55.918;37.746;2022-10-16T09:45:05;100674.78;;;12.73;0.00
23318;BME280;11831;55.918;37.746;2022-10-16T09:47:32;100675.50;;;13.00;0.00
23318;BME280;11831;55.918;37.746;2022-10-16T09:50:05;100681.41;;;13.16;0.00
23318;BME280;11831;55.918;37.746;2022-10-16T09:52:40;100668.28;;;13.71;0.00
23318;BME280;11831;55.918;37.746;2022-10-16T09:55:13;100668.22;;;13.77;0.00
23318;BME280;11831;55.918;37.746;2022-10-16T09:57:52;100671.91;;;13.58;0.00
23318;BME280;11831;55.918;37.746;2022-10-16T10:00:18;100660.94;;;13.84;0.00
23318;BME280;11831;55.918;37.746;2022-10-16T10:02:45;100665.19;;;13.67;0.00
23318;BME280;11831;55.918;37.746;2022-10-16T10:05:19;100677.13;;;13.46;0.00
23318;BME280;11831;55.918;37.746;2022-10-16T10:07:52;100686.88;;;13.97;0.00
23318;BME280;11831;55.918;37.746;2022-10-16T10:10:21;100664.97;;;13.68;0.00
23318;BME280;11831;55.918;37.746;2022-10-16T10:12:47;100658.56;;;13.94;0.00
23318;BME280;11831;55.918;37.746;2022-10-16T10:15:13;100647.56;;;14.94;0.00
23318;BME280;11831;55.918;37.746;2022-10-16T10:17:49;100653.78;;;14.95;0.00
23318;BME280;11831;55.918;37.746;2022-10-16T10:20:21;100650.53;;;16.58;0.00
23318;BME280;11831;55.918;37.746;2022-10-16T10:22:48;100660.50;;;16.69;0.00
23318;BME280;11831;55.918;37.746;2022-10-16T10:25:38;100643.81;;;18.08;0.00
23318;BME280;11831;55.918;37.746;2022-10-16T10:33:25;100648.41;;;17.90;0.00
23318;BME280;11831;55.918;37.746;2022-10-16T10:41:24;100657.63;;;17.44;0.00
23318;BME280;11831;55.918;37.746;2022-10-16T10:46:44;100643.84;;;18.29;0.00
23318;BME280;11831;55.918;37.746;2022-10-16T11:02:00;100637.56;;;19.11;0.00
23318;BME280;11831;55.918;37.746;2022-10-16T11:07:04;100637.59;;;18.46;0.00
23318;BME280;11831;55.918;37.746;2022-10-16T11:09:33;100649.25;;;19.39;0.00
23318;BME280;11831;55.918;37.746;2022-10-16T11:12:07;100645.28;;;18.98;0.00
23318;BME280;11831;55.918;37.746;2022-10-16T11:22:17;100623.69;;;19.94;0.00
23318;BME280;11831;55.918;37.746;2022-10-16T11:24:51;100626.53;;;18.69;0.00
23318;BME280;11831;55.918;37.746;2022-10-16T11:27:20;100618.19;;;20.26;0.00
23318;BME280;11831;55.918;37.746;2022-10-16T11:29:50;100634.91;;;20.12;0.00
23318;BME280;11831;55.918;37.746;2022-10-16T11:32:23;100620.63;;;19.85;0.00
23318;BME280;11831;55.918;37.746;2022-10-16T11:34:52;100626.38;;;20.98;0.00
23318;BME280;11831;55.918;37.746;2022-10-16T11:37:23;100623.03;;;18.96;0.00
23318;BME280;11831;55.918;37.746;2022-10-16T11:39:49;100633.87;;;19.81;0.00
23318;BME280;11831;55.918;37.746;2022-10-16T11:42:37;100628.56;;;21.06;0.00
23318;BME280;11831;55.918;37.746;2022-10-16T11:47:35;100621.81;;;19.99;0.00
23318;BME280;11831;55.918;37.746;2022-10-16T11:50:25;100625.34;;;19.63;0.00
23318;BME280;11831;55.918;37.746;2022-10-16T11:52:57;100618.94;;;19.20;0.00
23318;BME280;11831;55.918;37.746;2022-10-16T11:55:27;100616.13;;;20.01;0.00
23318;BME280;11831;55.918;37.746;2022-10-16T11:57:58;100613.47;;;20.11;0.00
23318;BME280;11831;55.918;37.746;2022-10-16T12:00:28;100605.47;;;22.16;0.00
23318;BME280;11831;55.918;37.746;2022-10-16T12:03:05;100618.16;;;19.51;0.00
23318;BME280;11831;55.918;37.746;2022-10-16T12:08:21;100611.50;;;20.43;0.00
23318;BME280;11831;55.918;37.746;2022-10-16T12:10:47;100621.59;;;19.42;0.00
23318;BME280;11831;55.918;37.746;2022-10-16T12:13:33;100619.22;;;19.50;0.00
23318;BME280;11831;55.918;37.746;2022-10-16T12:18:38;100641.41;;;19.15;0.00
23318;BME280;11831;55.918;37.746;2022-10-16T12:21:05;100614.94;;;20.29;0.00
23318;BME280;11831;55.918;37.746;2022-10-16T12:23:36;100620.81;;;19.73;0.00
23318;BME280;11831;55.918;37.746;2022-10-16T12:26:03;100601.75;;;20.05;0.00
23318;BME280;11831;55.918;37.746;2022-10-16T12:28:30;100600.06;;;20.41;0.00
23318;BME280;11831;55.918;37.746;2022-10-16T12:30:58;100606.84;;;19.92;0.00
23318;BME280;11831;55.918;37.746;2022-10-16T12:33:26;100597.31;;;20.36;0.00
23318;BME280;11831;55.918;37.746;2022-10-16T12:35:53;100604.16;;;19.97;0.00
23318;BME280;11831;55.918;37.746;2022-10-16T12:38:45;100578.78;;;19.76;0.00
23318;BME280;11831;55.918;37.746;2022-10-16T12:41:12;100593.81;;;19.94;0.00
23318;BME280;11831;55.918;37.746;2022-10-16T12:43:45;100593.81;;;21.24;0.00
23318;BME280;11831;55.918;37.746;2022-10-16T12:48:40;100591.38;;;21.68;0.00
23318;BME280;11831;55.918;37.746;2022-10-16T12:51:34;100587.00;;;21.36;0.00
23318;BME280;11831;55.918;37.746;2022-10-16T12:54:04;100582.84;;;22.20;0.00
23318;BME280;11831;55.918;37.746;2022-10-16T13:02:03;100582.13;;;21.59;0.00
23318;BME280;11831;55.918;37.746;2022-10-16T13:17:48;100587.13;;;20.11;0.00
23318;BME280;11831;55.918;37.746;2022-10-16T13:20:34;100577.53;;;19.57;0.00
23318;BME280;11831;55.918;37.746;2022-10-16T13:25:31;100578.84;;;21.26;0.00
23318;BME280;11831;55.918;37.746;2022-10-16T13:30:27;100582.56;;;19.75;0.00
23318;BME280;11831;55.918;37.746;2022-10-16T13:33:01;100591.12;;;19.30;0.00
23318;BME280;11831;55.918;37.746;2022-10-16T13:35:28;100588.91;;;19.53;0.00
23318;BME280;11831;55.918;37.746;2022-10-16T13:38:14;100588.91;;;19.27;0.00
23318;BME280;11831;55.918;37.746;2022-10-16T13:40:56;100584.22;;;19.49;0.00
23318;BME280;11831;55.918;37.746;2022-10-16T13:43:24;100582.19;;;19.98;0.00
23318;BME280;11831;55.918;37.746;2022-10-16T13:45:52;100591.09;;;18.54;0.00
23318;BME280;11831;55.918;37.746;2022-10-16T13:48:19;100591.25;;;18.64;0.00
23318;BME280;11831;55.918;37.746;2022-10-16T13:50:44;100591.91;;;17.27;0.00
23318;BME280;11831;55.918;37.746;2022-10-16T13:53:14;100579.16;;;17.56;0.00
23318;BME280;11831;55.918;37.746;2022-10-16T13:55:40;100563.13;;;16.75;0.00
23318;BME280;11831;55.918;37.746;2022-10-16T13:58:10;100570.19;;;16.76;0.00
23318;BME280;11831;55.918;37.746;2022-10-16T14:00:37;100570.59;;;16.57;0.00
23318;BME280;11831;55.918;37.746;2022-10-16T14:03:05;100574.81;;;15.77;0.00
23318;BME280;11831;55.918;37.746;2022-10-16T14:05:32;100577.69;;;15.52;0.00
23318;BME280;11831;55.918;37.746;2022-10-16T14:07:58;100577.16;;;15.62;0.00
23318;BME280;11831;55.918;37.746;2022-10-16T14:10:27;100572.41;;;15.58;0.00
23318;BME280;11831;55.918;37.746;2022-10-16T14:13:05;100569.53;;;16.06;0.00
23318;BME280;11831;55.918;37.746;2022-10-16T14:15:33;100572.31;;;15.52;0.00
23318;BME280;11831;55.918;37.746;2022-10-16T14:18:00;100573.41;;;14.80;0.00
23318;BME280;11831;55.918;37.746;2022-10-16T14:20:27;100579.69;;;14.44;0.00
23318;BME280;11831;55.918;37.746;2022-10-16T14:25:27;100576.37;;;14.42;0.00
23318;BME280;11831;55.918;37.746;2022-10-16T14:30:48;100571.84;;;13.81;0.00
23318;BME280;11831;55.918;37.746;2022-10-16T14:33:22;100580.41;;;13.71;0.00
23318;BME280;11831;55.918;37.746;2022-10-16T14:38:33;100570.88;;;13.25;0.00
23318;BME280;11831;55.918;37.746;2022-10-16T14:40:59;100570.09;;;13.18;0.00
23318;BME280;11831;55.918;37.746;2022-10-16T14:43:29;100582.66;;;12.86;0.00
23318;BME280;11831;55.918;37.746;2022-10-16T14:45:57;100574.03;;;12.78;0.00
23318;BME280;11831;55.918;37.746;2022-10-16T14:48:23;100582.44;;;12.88;0.00
23318;BME280;11831;55.918;37.746;2022-10-16T14:50:50;100572.25;;;12.65;0.00
23318;BME280;11831;55.918;37.746;2022-10-16T14:53:16;100572.87;;;12.60;0.00
23318;BME280;11831;55.918;37.746;2022-10-16T14:55:42;100580.97;;;12.47;0.00
23318;BME280;11831;55.918;37.746;2022-10-16T14:58:11;100566.75;;;12.47;0.00
23318;BME280;11831;55.918;37.746;2022-10-16T15:00:39;100569.09;;;12.30;0.00
23318;BME280;11831;55.918;37.746;2022-10-16T15:03:05;100571.19;;;12.15;0.00